createdAt,value
2018-05-24T00:00:41.118Z,0.00
2018-05-24T00:01:41.112Z,0.00
2018-05-24T00:02:41.111Z,0.00
2018-05-24T00:03:41.114Z,0.00
2018-05-24T00:04:41.112Z,0.00
2018-05-24T00:05:41.109Z,0.00
2018-05-24T00:06:41.113Z,0.00
2018-05-24T00:07:41.107Z,0.00
2018-05-24T00:08:41.108Z,0.00
2018-05-24T00:09:41.106Z,0.00
2018-05-24T00:10:41.105Z,0.00
2018-05-24T00:11:41.098Z,0.00
2018-05-24T00:12:41.102Z,0.00
2018-05-24T00:13:41.103Z,0.00
2018-05-24T00:14:41.104Z,0.00
2018-05-24T00:15:41.100Z,0.00
2018-05-24T00:16:41.100Z,0.00
2018-05-24T00:17:41.105Z,0.00
2018-05-24T00:18:41.097Z,0.00
2018-05-24T00:19:41.099Z,0.00
2018-05-24T00:20:41.094Z,0.00
2018-05-24T00:21:41.096Z,0.00
2018-05-24T00:22:41.094Z,0.00
2018-05-24T00:23:41.092Z,0.00
2018-05-24T00:24:41.091Z,0.00
2018-05-24T00:25:41.090Z,0.00
2018-05-24T00:26:41.089Z,0.00
2018-05-24T00:27:41.092Z,0.00
2018-05-24T00:28:41.088Z,0.00
2018-05-24T00:29:41.088Z,0.00
2018-05-24T00:30:41.091Z,0.00
2018-05-24T00:31:41.088Z,0.00
2018-05-24T00:32:41.086Z,0.00
2018-05-24T00:33:41.087Z,0.00
2018-05-24T00:34:41.084Z,0.00
2018-05-24T00:35:41.081Z,0.00
2018-05-24T00:36:41.079Z,0.00
2018-05-24T00:37:41.079Z,0.00
2018-05-24T00:38:41.075Z,0.00
2018-05-24T00:39:41.084Z,0.00
2018-05-24T00:40:41.081Z,0.00
2018-05-24T00:41:41.074Z,0.00
2018-05-24T00:42:41.074Z,0.00
2018-05-24T00:43:41.073Z,0.00
2018-05-24T00:44:41.074Z,0.00
2018-05-24T00:45:41.072Z,0.00
2018-05-24T00:46:41.073Z,0.00
2018-05-24T00:47:41.075Z,0.00
2018-05-24T00:48:41.067Z,0.00
2018-05-24T00:49:41.066Z,0.00
2018-05-24T00:50:41.093Z,0.00
2018-05-24T00:51:41.059Z,0.00
2018-05-24T00:52:41.062Z,0.00
2018-05-24T00:53:41.073Z,0.00
2018-05-24T00:54:41.107Z,0.00
2018-05-24T00:55:41.056Z,0.00
2018-05-24T00:56:41.061Z,0.00
2018-05-24T00:57:41.059Z,0.00
2018-05-24T00:58:41.060Z,0.00
2018-05-24T00:59:41.062Z,0.00
2018-05-24T01:00:41.055Z,0.00
2018-05-24T01:01:41.057Z,0.00
2018-05-24T01:02:41.053Z,0.00
2018-05-24T01:03:41.052Z,0.00
2018-05-24T01:04:41.052Z,0.00
2018-05-24T01:05:41.049Z,0.00
2018-05-24T01:06:41.049Z,0.00
2018-05-24T01:07:41.048Z,0.00
2018-05-24T01:08:41.048Z,0.00
2018-05-24T01:09:41.046Z,0.00
2018-05-24T01:10:41.049Z,0.00
2018-05-24T01:11:41.044Z,0.00
2018-05-24T01:12:41.043Z,0.00
2018-05-24T01:13:41.041Z,0.00
2018-05-24T01:14:41.041Z,0.00
2018-05-24T01:15:41.133Z,0.00
2018-05-24T01:16:41.035Z,0.00
2018-05-24T01:17:41.044Z,0.00
2018-05-24T01:18:41.035Z,0.00
2018-05-24T01:19:41.033Z,0.00
2018-05-24T01:20:41.033Z,0.00
2018-05-24T01:21:41.033Z,0.00
2018-05-24T01:22:41.040Z,0.00
2018-05-24T01:23:41.033Z,0.00
2018-05-24T01:24:41.033Z,0.00
2018-05-24T01:25:41.027Z,0.00
2018-05-24T01:26:41.035Z,0.00
2018-05-24T01:27:41.026Z,0.00
2018-05-24T01:28:41.024Z,0.00
2018-05-24T01:29:41.024Z,0.00
2018-05-24T01:30:41.023Z,0.00
2018-05-24T01:31:41.018Z,0.00
2018-05-24T01:32:41.018Z,0.00
2018-05-24T01:33:41.020Z,0.00
2018-05-24T01:34:41.023Z,0.00
2018-05-24T01:35:41.018Z,0.00
2018-05-24T01:36:41.025Z,0.00
2018-05-24T01:37:41.014Z,0.00
2018-05-24T01:38:41.014Z,0.00
2018-05-24T01:39:41.012Z,0.00
2018-05-24T01:40:41.011Z,0.00
2018-05-24T01:41:41.010Z,0.00
2018-05-24T01:42:41.013Z,0.00
2018-05-24T01:43:41.009Z,0.00
2018-05-24T01:44:41.003Z,0.00
2018-05-24T01:45:41.004Z,0.00
2018-05-24T01:46:41.005Z,0.00
2018-05-24T01:47:41.003Z,0.00
2018-05-24T01:48:41.003Z,0.00
2018-05-24T01:49:41.002Z,0.00
2018-05-24T01:50:41.000Z,0.00
2018-05-24T01:51:40.998Z,0.00
2018-05-24T01:52:40.996Z,0.00
2018-05-24T01:53:40.996Z,0.00
2018-05-24T01:54:40.995Z,0.00
2018-05-24T01:55:40.994Z,0.00
2018-05-24T01:56:40.993Z,0.00
2018-05-24T01:57:40.989Z,0.00
2018-05-24T01:58:40.989Z,0.00
2018-05-24T01:59:40.988Z,0.00
2018-05-24T02:00:40.986Z,0.00
2018-05-24T02:01:40.985Z,0.00
2018-05-24T02:02:40.985Z,0.00
2018-05-24T02:03:40.986Z,0.00
2018-05-24T02:04:40.984Z,0.00
2018-05-24T02:05:40.982Z,0.00
2018-05-24T02:06:40.983Z,0.00
2018-05-24T02:07:40.981Z,0.00
2018-05-24T02:08:40.978Z,0.00
2018-05-24T02:09:40.981Z,0.00
2018-05-24T02:10:40.974Z,0.00
2018-05-24T02:11:40.972Z,0.00
2018-05-24T02:12:40.974Z,0.00
2018-05-24T02:13:40.971Z,0.00
2018-05-24T02:14:40.973Z,0.00
2018-05-24T02:15:40.970Z,4.00
2018-05-24T02:16:40.969Z,4.00
2018-05-24T02:17:40.974Z,0.00
2018-05-24T02:18:40.967Z,0.00
2018-05-24T02:19:40.967Z,4.00
2018-05-24T02:20:40.967Z,4.00
2018-05-24T02:21:40.964Z,0.00
2018-05-24T02:22:40.963Z,4.00
2018-05-24T02:23:40.958Z,4.00
2018-05-24T02:24:40.958Z,4.00
2018-05-24T02:25:40.957Z,4.00
2018-05-24T02:26:40.959Z,4.00
2018-05-24T02:27:40.955Z,8.00
2018-05-24T02:28:40.952Z,8.00
2018-05-24T02:29:40.954Z,8.00
2018-05-24T02:30:40.953Z,8.00
2018-05-24T02:31:40.948Z,8.00
2018-05-24T02:32:40.948Z,12.00
2018-05-24T02:33:40.945Z,12.00
2018-05-24T02:34:40.948Z,12.00
2018-05-24T02:35:41.043Z,12.00
2018-05-24T02:36:40.962Z,16.00
2018-05-24T02:37:40.944Z,20.00
2018-05-24T02:38:40.945Z,24.00
2018-05-24T02:39:40.942Z,28.00
2018-05-24T02:40:40.945Z,28.00
2018-05-24T02:41:40.938Z,32.00
2018-05-24T02:42:40.936Z,36.00
2018-05-24T02:43:40.941Z,36.00
2018-05-24T02:44:40.933Z,44.00
2018-05-24T02:45:40.934Z,48.00
2018-05-24T02:46:40.928Z,56.00
2018-05-24T02:47:40.927Z,60.00
2018-05-24T02:48:40.922Z,64.00
2018-05-24T02:49:40.928Z,72.00
2018-05-24T02:50:40.924Z,76.00
2018-05-24T02:51:40.929Z,88.00
2018-05-24T02:52:40.917Z,92.00
2018-05-24T02:53:40.916Z,100.00
2018-05-24T02:54:40.920Z,108.00
2018-05-24T02:55:40.919Z,120.00
2018-05-24T02:56:40.924Z,128.00
2018-05-24T02:57:40.915Z,140.00
2018-05-24T02:58:40.992Z,152.00
2018-05-24T02:59:40.913Z,164.00
2018-05-24T03:00:40.909Z,176.00
2018-05-24T03:01:40.941Z,192.00
2018-05-24T03:02:40.909Z,208.00
2018-05-24T03:03:40.905Z,224.00
2018-05-24T03:04:40.905Z,240.00
2018-05-24T03:05:40.905Z,256.00
2018-05-24T03:06:40.902Z,276.00
2018-05-24T03:07:40.898Z,292.00
2018-05-24T03:08:40.901Z,312.00
2018-05-24T03:09:40.897Z,332.00
2018-05-24T03:10:40.896Z,356.00
2018-05-24T03:11:40.896Z,376.00
2018-05-24T03:12:40.893Z,396.00
2018-05-24T03:13:40.896Z,420.00
2018-05-24T03:14:40.890Z,448.00
2018-05-24T03:15:40.992Z,472.00
2018-05-24T03:16:40.888Z,496.00
2018-05-24T03:17:40.885Z,520.00
2018-05-24T03:18:40.892Z,548.00
2018-05-24T03:19:40.882Z,572.00
2018-05-24T03:20:40.882Z,596.00
2018-05-24T03:21:40.884Z,624.00
2018-05-24T03:22:40.883Z,652.00
2018-05-24T03:23:40.876Z,680.00
2018-05-24T03:24:40.877Z,708.00
2018-05-24T03:25:40.875Z,736.00
2018-05-24T03:26:40.869Z,772.00
2018-05-24T03:27:40.871Z,812.00
2018-05-24T03:28:40.873Z,864.00
2018-05-24T03:29:40.869Z,920.00
2018-05-24T03:30:40.869Z,964.00
2018-05-24T03:31:40.866Z,1028.00
2018-05-24T03:32:40.864Z,1104.00
2018-05-24T03:33:40.872Z,1188.00
2018-05-24T03:34:40.862Z,1412.00
2018-05-24T03:35:40.860Z,1932.00
2018-05-24T03:36:40.858Z,2324.00
2018-05-24T03:37:40.855Z,2440.00
2018-05-24T03:38:40.863Z,2544.00
2018-05-24T03:39:40.852Z,2628.00
2018-05-24T03:40:40.855Z,2484.00
2018-05-24T03:41:40.854Z,2276.00
2018-05-24T03:42:40.850Z,2496.00
2018-05-24T03:43:40.848Z,2808.00
2018-05-24T03:44:40.847Z,2828.00
2018-05-24T03:45:40.846Z,2844.00
2018-05-24T03:46:40.846Z,3064.00
2018-05-24T03:47:40.840Z,3312.00
2018-05-24T03:48:40.845Z,3436.00
2018-05-24T03:49:40.842Z,3560.00
2018-05-24T03:50:40.840Z,3656.00
2018-05-24T03:51:40.843Z,3756.00
2018-05-24T03:52:40.836Z,3856.00
2018-05-24T03:53:40.845Z,3948.00
2018-05-24T03:54:40.842Z,3984.00
2018-05-24T03:55:40.836Z,4032.00
2018-05-24T03:56:40.839Z,4156.00
2018-05-24T03:57:40.925Z,4224.00
2018-05-24T03:58:40.837Z,4324.00
2018-05-24T03:59:40.835Z,4368.00
2018-05-24T04:00:40.829Z,4464.00
2018-05-24T04:01:40.824Z,4520.00
2018-05-24T04:02:40.827Z,4580.00
2018-05-24T04:03:40.827Z,4724.00
2018-05-24T04:04:40.827Z,4812.00
2018-05-24T04:05:40.829Z,4892.00
2018-05-24T04:06:40.829Z,4944.00
2018-05-24T04:07:40.825Z,4944.00
2018-05-24T04:08:40.823Z,4940.00
2018-05-24T04:09:40.823Z,4996.00
2018-05-24T04:10:40.834Z,5076.00
2018-05-24T04:11:40.822Z,5084.00
2018-05-24T04:12:40.821Z,5108.00
2018-05-24T04:13:40.827Z,5200.00
2018-05-24T04:14:40.820Z,5296.00
2018-05-24T04:15:40.821Z,5364.00
2018-05-24T04:16:40.818Z,5268.00
2018-05-24T04:17:40.818Z,5160.00
2018-05-24T04:18:40.822Z,5292.00
2018-05-24T04:19:40.815Z,5108.00
2018-05-24T04:20:40.821Z,4880.00
2018-05-24T04:21:40.818Z,4616.00
2018-05-24T04:22:40.817Z,4552.00
2018-05-24T04:23:40.815Z,4416.00
2018-05-24T04:24:40.824Z,4492.00
2018-05-24T04:25:40.817Z,4628.00
2018-05-24T04:26:40.817Z,4788.00
2018-05-24T04:27:40.817Z,4848.00
2018-05-24T04:28:40.825Z,4848.00
2018-05-24T04:29:40.817Z,4604.00
2018-05-24T04:30:40.812Z,4644.00
2018-05-24T04:31:40.812Z,4740.00
2018-05-24T04:32:40.813Z,4676.00
2018-05-24T04:33:40.808Z,4536.00
2018-05-24T04:34:40.814Z,4904.00
2018-05-24T04:35:40.816Z,5324.00
2018-05-24T04:36:40.811Z,4792.00
2018-05-24T04:37:40.810Z,5244.00
2018-05-24T04:38:40.812Z,5048.00
2018-05-24T04:39:40.812Z,4920.00
2018-05-24T04:40:40.810Z,4764.00
2018-05-24T04:41:40.811Z,4340.00
2018-05-24T04:42:40.815Z,4304.00
2018-05-24T04:43:40.814Z,4688.00
2018-05-24T04:44:40.809Z,4852.00
2018-05-24T04:45:40.808Z,4800.00
2018-05-24T04:46:40.808Z,4712.00
2018-05-24T04:47:40.810Z,4920.00
2018-05-24T04:48:40.805Z,4900.00
2018-05-24T04:49:40.809Z,5128.00
2018-05-24T04:50:40.810Z,5224.00
2018-05-24T04:51:40.807Z,5668.00
2018-05-24T04:52:40.807Z,5432.00
2018-05-24T04:53:40.817Z,5460.00
2018-05-24T04:54:40.808Z,5388.00
2018-05-24T04:55:40.808Z,5604.00
2018-05-24T04:56:40.807Z,5700.00
2018-05-24T04:57:40.813Z,5540.00
2018-05-24T04:58:40.814Z,5680.00
2018-05-24T04:59:40.809Z,5912.00
2018-05-24T05:00:40.804Z,5952.00
2018-05-24T05:01:40.893Z,5844.00
2018-05-24T05:02:40.801Z,5932.00
2018-05-24T05:03:40.804Z,6068.00
2018-05-24T05:04:40.805Z,5884.00
2018-05-24T05:05:40.806Z,6040.00
2018-05-24T05:06:40.805Z,6212.00
2018-05-24T05:07:40.805Z,6084.00
2018-05-24T05:08:40.808Z,6156.00
2018-05-24T05:09:40.808Z,6192.00
2018-05-24T05:10:40.805Z,6284.00
2018-05-24T05:11:40.805Z,6088.00
2018-05-24T05:12:40.812Z,6172.00
2018-05-24T05:13:40.807Z,6348.00
2018-05-24T05:14:40.900Z,6136.00
2018-05-24T05:15:40.803Z,6172.00
2018-05-24T05:16:40.807Z,6312.00
2018-05-24T05:17:40.807Z,6316.00
2018-05-24T05:18:40.803Z,6252.00
2018-05-24T05:19:40.804Z,6480.00
2018-05-24T05:20:40.806Z,6304.00
2018-05-24T05:21:40.807Z,6420.00
2018-05-24T05:22:40.807Z,6368.00
2018-05-24T05:23:40.807Z,6308.00
2018-05-24T05:24:40.807Z,6528.00
2018-05-24T05:25:40.807Z,6464.00
2018-05-24T05:26:40.812Z,6264.00
2018-05-24T05:27:40.810Z,6280.00
2018-05-24T05:28:40.809Z,6412.00
2018-05-24T05:29:40.809Z,6404.00
2018-05-24T05:30:40.831Z,6432.00
2018-05-24T05:31:40.808Z,6604.00
2018-05-24T05:32:40.811Z,6648.00
2018-05-24T05:33:40.807Z,6740.00
2018-05-24T05:34:40.811Z,6864.00
2018-05-24T05:35:40.811Z,7172.00
2018-05-24T05:36:40.827Z,7400.00
2018-05-24T05:37:40.815Z,7320.00
2018-05-24T05:38:40.814Z,7560.00
2018-05-24T05:39:40.815Z,7724.00
2018-05-24T05:40:40.818Z,7284.00
2018-05-24T05:41:40.817Z,7116.00
2018-05-24T05:42:40.820Z,6832.00
2018-05-24T05:43:40.819Z,6684.00
2018-05-24T05:44:40.823Z,6608.00
2018-05-24T05:45:40.821Z,6760.00
2018-05-24T05:46:40.822Z,6968.00
2018-05-24T05:47:40.823Z,6656.00
2018-05-24T05:48:40.826Z,6788.00
2018-05-24T05:49:40.827Z,7476.00
2018-05-24T05:50:40.827Z,6860.00
2018-05-24T05:51:40.822Z,6624.00
2018-05-24T05:52:40.826Z,6352.00
2018-05-24T05:53:40.830Z,6400.00
2018-05-24T05:54:40.837Z,6132.00
2018-05-24T05:55:40.831Z,6044.00
2018-05-24T05:56:40.833Z,6196.00
2018-05-24T05:57:40.833Z,6308.00
2018-05-24T05:58:40.841Z,6760.00
2018-05-24T05:59:40.837Z,7488.00
2018-05-24T06:00:40.839Z,6652.00
2018-05-24T06:01:40.855Z,5844.00
2018-05-24T06:02:40.841Z,6508.00
2018-05-24T06:03:40.847Z,7612.00
2018-05-24T06:04:40.843Z,7652.00
2018-05-24T06:05:40.844Z,7668.00
2018-05-24T06:06:40.842Z,8008.00
2018-05-24T06:07:40.846Z,8136.00
2018-05-24T06:08:40.845Z,8336.00
2018-05-24T06:09:40.935Z,8784.00
2018-05-24T06:10:40.848Z,8720.00
2018-05-24T06:11:40.853Z,9056.00
2018-05-24T06:12:40.849Z,8320.00
2018-05-24T06:13:40.849Z,8192.00
2018-05-24T06:14:40.853Z,8808.00
2018-05-24T06:15:40.854Z,9564.00
2018-05-24T06:16:40.857Z,9540.00
2018-05-24T06:17:40.856Z,9324.00
2018-05-24T06:18:40.859Z,9056.00
2018-05-24T06:19:40.859Z,7928.00
2018-05-24T06:20:40.860Z,7180.00
2018-05-24T06:21:40.979Z,7920.00
2018-05-24T06:22:40.862Z,8200.00
2018-05-24T06:23:40.861Z,8456.00
2018-05-24T06:24:40.865Z,7740.00
2018-05-24T06:25:40.875Z,6544.00
2018-05-24T06:26:40.877Z,6916.00
2018-05-24T06:27:40.870Z,8020.00
2018-05-24T06:28:40.873Z,9016.00
2018-05-24T06:29:40.875Z,9460.00
2018-05-24T06:30:40.875Z,9104.00
2018-05-24T06:31:40.875Z,7916.00
2018-05-24T06:32:40.879Z,6928.00
2018-05-24T06:33:40.882Z,7288.00
2018-05-24T06:34:40.880Z,7472.00
2018-05-24T06:35:40.882Z,8176.00
2018-05-24T06:36:40.887Z,8604.00
2018-05-24T06:37:40.884Z,9132.00
2018-05-24T06:38:40.885Z,9284.00
2018-05-24T06:39:40.885Z,10840.00
2018-05-24T06:40:40.889Z,10744.00
2018-05-24T06:41:40.903Z,11040.00
2018-05-24T06:42:40.892Z,12280.00
2018-05-24T06:43:40.890Z,19072.00
2018-05-24T06:44:40.894Z,31968.00
2018-05-24T06:45:40.893Z,38688.00
2018-05-24T06:46:40.899Z,32800.00
2018-05-24T06:47:40.904Z,25568.00
2018-05-24T06:48:40.896Z,24000.00
2018-05-24T06:49:40.905Z,17856.00
2018-05-24T06:50:40.906Z,18048.00
2018-05-24T06:51:40.906Z,21056.00
2018-05-24T06:52:40.911Z,21504.00
2018-05-24T06:53:41.013Z,25280.00
2018-05-24T06:54:40.912Z,19584.00
2018-05-24T06:55:40.913Z,20640.00
2018-05-24T06:56:40.915Z,27040.00
2018-05-24T06:57:40.916Z,21344.00
2018-05-24T06:58:40.924Z,19072.00
2018-05-24T06:59:40.922Z,20096.00
2018-05-24T07:00:40.923Z,18464.00
2018-05-24T07:01:40.930Z,31296.00
2018-05-24T07:02:40.923Z,49088.00
2018-05-24T07:03:40.928Z,57600.00
2018-05-24T07:04:40.931Z,59936.00
2018-05-24T07:05:40.932Z,58496.00
2018-05-24T07:06:40.933Z,60768.00
2018-05-24T07:07:40.936Z,59744.00
2018-05-24T07:08:40.938Z,58080.00
2018-05-24T07:09:40.955Z,54528.00
2018-05-24T07:10:40.946Z,53632.00
2018-05-24T07:11:40.943Z,50048.00
2018-05-24T07:12:40.950Z,48608.00
2018-05-24T07:13:40.951Z,40608.00
2018-05-24T07:14:40.954Z,40384.00
2018-05-24T07:15:40.956Z,43232.00
2018-05-24T07:16:40.959Z,46112.00
2018-05-24T07:17:40.962Z,56128.00
2018-05-24T07:18:40.994Z,50976.00
2018-05-24T07:19:40.970Z,61280.00
2018-05-24T07:20:40.971Z,51872.00
2018-05-24T07:21:40.976Z,55136.00
2018-05-24T07:22:40.984Z,52288.00
2018-05-24T07:23:40.983Z,60480.00
2018-05-24T07:24:41.021Z,49856.00
2018-05-24T07:25:40.988Z,49344.00
2018-05-24T07:26:40.996Z,51648.00
2018-05-24T07:27:41.000Z,42848.00
2018-05-24T07:28:41.008Z,37088.00
2018-05-24T07:29:41.006Z,42080.00
2018-05-24T07:30:41.012Z,38016.00
2018-05-24T07:31:41.014Z,36448.00
2018-05-24T07:32:41.020Z,26688.00
2018-05-24T07:33:41.023Z,21024.00
2018-05-24T07:34:41.024Z,25504.00
2018-05-24T07:35:41.031Z,29760.00
2018-05-24T07:36:41.032Z,23264.00
2018-05-24T07:37:41.116Z,27904.00
2018-05-24T07:38:41.043Z,19072.00
2018-05-24T07:39:41.136Z,16096.00
2018-05-24T07:40:41.049Z,19712.00
2018-05-24T07:41:41.049Z,20096.00
2018-05-24T07:42:41.055Z,19200.00
2018-05-24T07:43:41.059Z,20992.00
2018-05-24T07:44:41.063Z,16288.00
2018-05-24T07:45:41.065Z,17792.00
2018-05-24T07:46:41.071Z,23712.00
2018-05-24T07:47:41.071Z,27392.00
2018-05-24T07:48:41.081Z,32544.00
2018-05-24T07:49:41.079Z,34880.00
2018-05-24T07:50:41.081Z,48416.00
2018-05-24T07:51:41.086Z,57120.00
2018-05-24T07:52:41.090Z,44416.00
2018-05-24T07:53:41.087Z,47200.00
2018-05-24T07:54:41.141Z,30720.00
2018-05-24T07:55:41.096Z,32480.00
2018-05-24T07:56:41.103Z,32992.00
2018-05-24T07:57:41.105Z,42336.00
2018-05-24T07:58:41.113Z,41536.00
2018-05-24T07:59:41.114Z,39552.00
2018-05-24T08:00:41.121Z,39488.00
2018-05-24T08:01:41.154Z,39392.00
2018-05-24T08:02:41.125Z,42432.00
2018-05-24T08:03:41.129Z,48640.00
2018-05-24T08:04:41.133Z,51840.00
2018-05-24T08:05:41.137Z,49312.00
2018-05-24T08:06:41.141Z,44928.00
2018-05-24T08:07:41.145Z,46976.00
2018-05-24T08:08:41.183Z,58048.00
2018-05-24T08:09:41.158Z,69856.00
2018-05-24T08:10:41.163Z,75616.00
2018-05-24T08:11:41.171Z,75616.00
2018-05-24T08:12:41.176Z,73120.00
2018-05-24T08:13:41.182Z,71552.00
2018-05-24T08:14:41.276Z,80704.00
2018-05-24T08:15:41.194Z,88832.00
2018-05-24T08:16:41.202Z,88864.00
2018-05-24T08:17:41.208Z,81696.00
2018-05-24T08:18:41.214Z,78752.00
2018-05-24T08:19:41.224Z,84192.00
2018-05-24T08:20:41.227Z,87488.00
2018-05-24T08:21:41.233Z,80288.00
2018-05-24T08:22:41.243Z,70816.00
2018-05-24T08:23:41.248Z,67424.00
2018-05-24T08:24:41.258Z,70720.00
2018-05-24T08:25:41.265Z,75904.00
2018-05-24T08:26:41.276Z,80416.00
2018-05-24T08:27:41.281Z,84448.00
2018-05-24T08:28:41.290Z,81536.00
2018-05-24T08:29:41.298Z,76768.00
2018-05-24T08:30:41.302Z,76096.00
2018-05-24T08:31:41.314Z,78176.00
2018-05-24T08:32:41.321Z,80128.00
2018-05-24T08:33:41.332Z,81984.00
2018-05-24T08:34:41.339Z,88576.00
2018-05-24T08:35:41.352Z,95808.00
2018-05-24T08:36:41.355Z,89536.00
2018-05-24T08:37:41.362Z,82400.00
2018-05-24T08:38:41.416Z,83040.00
2018-05-24T08:39:41.384Z,88864.00
2018-05-24T08:40:41.427Z,91552.00
2018-05-24T08:41:41.510Z,85568.00
2018-05-24T08:42:41.405Z,82240.00
2018-05-24T08:43:41.413Z,85888.00
2018-05-24T08:44:41.427Z,93472.00
2018-05-24T08:45:41.432Z,93888.00
2018-05-24T08:46:41.438Z,90400.00
2018-05-24T08:47:41.866Z,86656.00
2018-05-24T08:48:41.453Z,86880.00
2018-05-24T08:49:41.526Z,90528.00
2018-05-24T08:50:41.473Z,89856.00
2018-05-24T08:51:41.485Z,87840.00
2018-05-24T08:52:41.492Z,88128.00
2018-05-24T08:53:41.501Z,74048.00
2018-05-24T08:54:41.506Z,25568.00
2018-05-24T08:55:41.510Z,6132.00
2018-05-24T08:56:41.525Z,5828.00
2018-05-24T08:57:41.531Z,5608.00
2018-05-24T08:58:41.591Z,5064.00
2018-05-24T08:59:41.548Z,4788.00
2018-05-24T09:00:41.597Z,4596.00
2018-05-24T09:01:41.559Z,4512.00
2018-05-24T09:02:41.567Z,4476.00
2018-05-24T09:03:41.575Z,4392.00
2018-05-24T09:04:41.579Z,4332.00
2018-05-24T09:05:41.629Z,4268.00
2018-05-24T09:06:41.588Z,4264.00
2018-05-24T09:07:41.594Z,4276.00
2018-05-24T09:08:41.601Z,4212.00
2018-05-24T09:09:41.604Z,4184.00
2018-05-24T09:10:41.609Z,4144.00
2018-05-24T09:11:41.613Z,4108.00
2018-05-24T09:12:41.616Z,4148.00
2018-05-24T09:13:41.666Z,4068.00
2018-05-24T09:14:41.626Z,4012.00
2018-05-24T09:15:41.629Z,3956.00
2018-05-24T09:16:41.635Z,3956.00
2018-05-24T09:17:41.639Z,3884.00
2018-05-24T09:18:41.646Z,3908.00
2018-05-24T09:19:41.655Z,3844.00
2018-05-24T09:20:41.650Z,3848.00
2018-05-24T09:21:41.733Z,3844.00
2018-05-24T09:22:41.655Z,3824.00
2018-05-24T09:23:41.659Z,3800.00
2018-05-24T09:24:41.663Z,3700.00
2018-05-24T09:25:41.666Z,3664.00
2018-05-24T09:26:41.669Z,3688.00
2018-05-24T09:27:41.673Z,3764.00
2018-05-24T09:28:41.677Z,3700.00
2018-05-24T09:29:41.676Z,3564.00
2018-05-24T09:30:41.681Z,3572.00
2018-05-24T09:31:41.687Z,3548.00
2018-05-24T09:32:41.687Z,3528.00
2018-05-24T09:33:41.691Z,3548.00
2018-05-24T09:34:41.693Z,3508.00
2018-05-24T09:35:41.696Z,3476.00
2018-05-24T09:36:41.698Z,3452.00
2018-05-24T09:37:41.702Z,3472.00
2018-05-24T09:38:41.708Z,3436.00
2018-05-24T09:39:41.717Z,3516.00
2018-05-24T09:40:41.711Z,3452.00
2018-05-24T09:41:41.712Z,3420.00
2018-05-24T09:42:41.716Z,3488.00
2018-05-24T09:43:41.716Z,3556.00
2018-05-24T09:44:41.731Z,3404.00
2018-05-24T09:45:41.731Z,3436.00
2018-05-24T09:46:41.733Z,3572.00
2018-05-24T09:47:41.735Z,3564.00
2018-05-24T09:48:41.733Z,3556.00
2018-05-24T09:49:41.733Z,3620.00
2018-05-24T09:50:41.742Z,3644.00
2018-05-24T09:51:41.742Z,3700.00
2018-05-24T09:52:41.746Z,3780.00
2018-05-24T09:53:41.751Z,3796.00
2018-05-24T09:54:41.751Z,3800.00
2018-05-24T09:55:41.750Z,3752.00
2018-05-24T09:56:41.757Z,3704.00
2018-05-24T09:57:41.755Z,3684.00
2018-05-24T09:58:41.759Z,3384.00
2018-05-24T09:59:41.764Z,3244.00
2018-05-24T10:00:41.771Z,3212.00
2018-05-24T10:01:41.771Z,3100.00
2018-05-24T10:02:41.775Z,3116.00
2018-05-24T10:03:41.777Z,3240.00
2018-05-24T10:04:41.857Z,3348.00
2018-05-24T10:05:41.782Z,3492.00
2018-05-24T10:06:41.785Z,3716.00
2018-05-24T10:07:41.787Z,3816.00
2018-05-24T10:08:41.797Z,3876.00
2018-05-24T10:09:41.802Z,3992.00
2018-05-24T10:10:41.848Z,4092.00
2018-05-24T10:11:41.796Z,4144.00
2018-05-24T10:12:41.809Z,4140.00
2018-05-24T10:13:41.813Z,4148.00
2018-05-24T10:14:41.855Z,4184.00
2018-05-24T10:15:41.808Z,4144.00
2018-05-24T10:16:41.848Z,4108.00
2018-05-24T10:17:41.815Z,4100.00
2018-05-24T10:18:41.820Z,4168.00
2018-05-24T10:19:41.820Z,4056.00
2018-05-24T10:20:41.826Z,3972.00
2018-05-24T10:21:41.830Z,3884.00
2018-05-24T10:22:41.909Z,3852.00
2018-05-24T10:23:41.828Z,3796.00
2018-05-24T10:24:41.834Z,3728.00
2018-05-24T10:25:41.836Z,3712.00
2018-05-24T10:26:41.870Z,3648.00
2018-05-24T10:27:41.847Z,3612.00
2018-05-24T10:28:41.845Z,3572.00
2018-05-24T10:29:41.848Z,3520.00
2018-05-24T10:30:41.867Z,3456.00
2018-05-24T10:31:41.857Z,3460.00
2018-05-24T10:32:41.859Z,3532.00
2018-05-24T10:33:41.861Z,3640.00
2018-05-24T10:34:41.864Z,3752.00
2018-05-24T10:35:41.867Z,3880.00
2018-05-24T10:36:41.871Z,4056.00
2018-05-24T10:37:41.900Z,4232.00
2018-05-24T10:38:41.878Z,4328.00
2018-05-24T10:39:41.882Z,4500.00
2018-05-24T10:40:41.887Z,4596.00
2018-05-24T10:41:41.886Z,4616.00
2018-05-24T10:42:41.953Z,4608.00
2018-05-24T10:43:41.891Z,4516.00
2018-05-24T10:44:41.895Z,4468.00
2018-05-24T10:45:41.946Z,4440.00
2018-05-24T10:46:41.902Z,4344.00
2018-05-24T10:47:41.905Z,4212.00
2018-05-24T10:48:41.908Z,4092.00
2018-05-24T10:49:41.931Z,4032.00
2018-05-24T10:50:41.915Z,3972.00
2018-05-24T10:51:41.919Z,3940.00
2018-05-24T10:52:41.920Z,3868.00
2018-05-24T10:53:41.926Z,3872.00
2018-05-24T10:54:41.929Z,3804.00
2018-05-24T10:55:41.939Z,3764.00
2018-05-24T10:56:41.961Z,3772.00
2018-05-24T10:57:41.942Z,3784.00
2018-05-24T10:58:41.942Z,3812.00
2018-05-24T10:59:42.024Z,3848.00
2018-05-24T11:00:41.949Z,3860.00
2018-05-24T11:01:41.953Z,3876.00
2018-05-24T11:02:42.081Z,3872.00
2018-05-24T11:03:41.959Z,3960.00
2018-05-24T11:04:41.959Z,4080.00
2018-05-24T11:05:41.974Z,4172.00
2018-05-24T11:06:41.973Z,4336.00
2018-05-24T11:07:41.974Z,4368.00
2018-05-24T11:08:41.978Z,4480.00
2018-05-24T11:09:41.981Z,4680.00
2018-05-24T11:10:41.987Z,4680.00
2018-05-24T11:11:42.082Z,4896.00
2018-05-24T11:12:41.990Z,4640.00
2018-05-24T11:13:41.998Z,4624.00
2018-05-24T11:14:42.028Z,4608.00
2018-05-24T11:15:42.002Z,4572.00
2018-05-24T11:16:42.008Z,4524.00
2018-05-24T11:17:42.007Z,4504.00
2018-05-24T11:18:42.010Z,4268.00
2018-05-24T11:19:42.014Z,4132.00
2018-05-24T11:20:42.021Z,4096.00
2018-05-24T11:21:42.023Z,4048.00
2018-05-24T11:22:42.026Z,3884.00
2018-05-24T11:23:42.026Z,3808.00
2018-05-24T11:24:42.031Z,3780.00
2018-05-24T11:25:42.040Z,3724.00
2018-05-24T11:26:42.040Z,3684.00
2018-05-24T11:27:42.043Z,3692.00
2018-05-24T11:28:42.046Z,3696.00
2018-05-24T11:29:42.051Z,3716.00
2018-05-24T11:30:42.056Z,3724.00
2018-05-24T11:31:42.066Z,3756.00
2018-05-24T11:32:42.064Z,3800.00
2018-05-24T11:33:42.065Z,3776.00
2018-05-24T11:34:42.073Z,3764.00
2018-05-24T11:35:42.075Z,3920.00
2018-05-24T11:36:42.078Z,3928.00
2018-05-24T11:37:42.081Z,3880.00
2018-05-24T11:38:42.089Z,3912.00
2018-05-24T11:39:42.089Z,3956.00
2018-05-24T11:40:42.093Z,3952.00
2018-05-24T11:41:42.097Z,4036.00
2018-05-24T11:42:42.104Z,4036.00
2018-05-24T11:43:42.105Z,4004.00
2018-05-24T11:44:42.105Z,3996.00
2018-05-24T11:45:42.108Z,3960.00
2018-05-24T11:46:42.113Z,3964.00
2018-05-24T11:47:42.117Z,3984.00
2018-05-24T11:48:42.120Z,4000.00
2018-05-24T11:49:42.126Z,4004.00
2018-05-24T11:50:42.127Z,3968.00
2018-05-24T11:51:42.130Z,4016.00
2018-05-24T11:52:42.132Z,3808.00
2018-05-24T11:53:42.135Z,3744.00
2018-05-24T11:54:42.140Z,3680.00
2018-05-24T11:55:42.138Z,3648.00
2018-05-24T11:56:42.145Z,3616.00
2018-05-24T11:57:42.148Z,3604.00
2018-05-24T11:58:42.153Z,3596.00
2018-05-24T11:59:42.156Z,3556.00
2018-05-24T12:00:42.230Z,3492.00
2018-05-24T12:01:42.200Z,3448.00
2018-05-24T12:02:42.165Z,3408.00
2018-05-24T12:03:42.172Z,3332.00
2018-05-24T12:04:42.175Z,3220.00
2018-05-24T12:05:42.178Z,3148.00
2018-05-24T12:06:42.182Z,3120.00
2018-05-24T12:07:42.187Z,3088.00
2018-05-24T12:08:42.192Z,3076.00
2018-05-24T12:09:42.225Z,3028.00
2018-05-24T12:10:42.269Z,3000.00
2018-05-24T12:11:42.199Z,2988.00
2018-05-24T12:12:42.207Z,2952.00
2018-05-24T12:13:42.209Z,2932.00
2018-05-24T12:14:42.216Z,2844.00
2018-05-24T12:15:42.219Z,2828.00
2018-05-24T12:16:42.219Z,2684.00
2018-05-24T12:17:42.223Z,2520.00